Sveva — IBEU — position and weather

sailwx.info

Track history (hours):
 
Tides and Currents Weather Stations Pressure Air Temp Water Temp Dewpoint Dewpoint Depression Visibility Wind Speed Wind Dir Waves Ship Positions

Sveva

Last reported at 2017-Jan-25 00:27 UTC. Time now 2017-Jan-25 01:34 UTC.
Position S 24°10' W 046°19'.

Length 136 m; draft 8.7 m.

Type: Ship (hazmat cat B). MMSI: 247359000.

Date/timePositionNaut miles runAvg speedWind from/ knotsBaromVisibWave heightAir tempDewpointWater temp
2017-Jan-25 00:27S 24°10' W 046°19'0 0.0
2017-Jan-24 23:33S 24°10' W 046°19'0 0.0
2017-Jan-24 22:33S 24°10' W 046°19'0 0.0
2017-Jan-24 21:33S 24°10' W 046°19'0 0.1
2017-Jan-24 20:33S 24°10' W 046°19'0 0.1
2017-Jan-24 19:33S 24°10' W 046°19'3 2.9
2017-Jan-24 18:33S 24°11' W 046°22'1211.9
2017-Jan-24 17:33S 24°21' W 046°15'1111.6
2017-Jan-24 16:33S 24°25' W 046°04'1211.9
2017-Jan-24 15:33S 24°28' W 045°51'1212.0
2017-Jan-24 14:32S 24°27' W 045°37'1212.1
2017-Jan-24 13:33S 24°25' W 045°24'1212.0
2017-Jan-24 12:33S 24°23' W 045°11'25012.4
2017-Jan-23 16:24S 23°28' W 040°45'  
Track history (hours):
 
Tides and Currents Weather Stations Pressure Air Temp Water Temp Dewpoint Dewpoint Depression Visibility Wind Speed Wind Dir Waves Ship Positions

Sveva

Last reported at 2017-Jan-25 00:27 UTC. Time now 2017-Jan-25 01:34 UTC.
Position S 24°10' W 046°19'.

Length 136 m; draft 8.7 m.

Type: Ship (hazmat cat B). MMSI: 247359000.

Date/timePositionNaut miles runAvg speedWind from/ knotsBaromVisibWave heightAir tempDewpointWater temp
2017-Jan-25 00:27S 24°10' W 046°19'0 0.0
2017-Jan-24 23:33S 24°10' W 046°19'0 0.0
2017-Jan-24 22:33S 24°10' W 046°19'0 0.0
2017-Jan-24 21:33S 24°10' W 046°19'0 0.1
2017-Jan-24 20:33S 24°10' W 046°19'0 0.1
2017-Jan-24 19:33S 24°10' W 046°19'3 2.9
2017-Jan-24 18:33S 24°11' W 046°22'1211.9
2017-Jan-24 17:33S 24°21' W 046°15'1111.6
2017-Jan-24 16:33S 24°25' W 046°04'1211.9
2017-Jan-24 15:33S 24°28' W 045°51'1212.0
2017-Jan-24 14:32S 24°27' W 045°37'1212.1
2017-Jan-24 13:33S 24°25' W 045°24'1212.0
2017-Jan-24 12:33S 24°23' W 045°11'25012.4
2017-Jan-23 16:24S 23°28' W 040°45'  

Dump ship's entire track history